Time;durP1;ratioP1;P1;durP2;ratioP2;P2;SDS_P1;SDS_P2;PMS_P1;PMS_P2;Temp;Humidity;BMP_temperature;BMP_pressure;BME280_temperature;BME280_humidity;BME280_pressure;Samples;Min_cycle;Max_cycle;Signal;HPM_P1;HPM_P2
2022/05/31 00:00:41;;;;;;;1.20;1.10;;;;;;;;;;5072132;28;20218;-75
2022/05/31 00:03:09;;;;;;;1.20;1.10;;;;;;;;;;5071840;28;20647;-76
2022/05/31 00:05:36;;;;;;;1.60;1.10;;;;;;;;;;5072257;28;20197;-76
2022/05/31 00:08:04;;;;;;;1.30;1.20;;;;;;;;;;5071652;28;20205;-76
2022/05/31 00:10:32;;;;;;;2.03;1.85;;;;;;;;;;5072140;28;20278;-76
2022/05/31 00:13:01;;;;;;;1.30;1.20;;;;;;;;;;5071391;28;20201;-75
2022/05/31 00:15:28;;;;;;;1.55;1.45;;;;;;;;;;5071986;28;20221;-76
2022/05/31 00:17:56;;;;;;;1.55;1.45;;;;;;;;;;5071928;28;20197;-77
2022/05/31 00:20:23;;;;;;;1.85;1.60;;;;;;;;;;5072029;28;20228;-76
2022/05/31 00:22:51;;;;;;;1.95;1.40;;;;;;;;;;5071312;28;20204;-76
2022/05/31 00:25:18;;;;;;;1.30;1.20;;;;;;;;;;5072260;28;20201;-76
2022/05/31 00:27:46;;;;;;;1.40;1.30;;;;;;;;;;5072094;28;20250;-76
2022/05/31 00:30:16;;;;;;;1.50;1.40;;;;;;;;;;5072032;28;20228;-75
2022/05/31 00:32:48;;;;;;;1.55;1.45;;;;;;;;;;5071413;28;20296;-76
2022/05/31 00:35:18;;;;;;;2.25;1.30;;;;;;;;;;5071701;28;20281;-76
2022/05/31 00:37:46;;;;;;;2.65;1.17;;;;;;;;;;5072089;28;20209;-75
2022/05/31 00:40:15;;;;;;;1.27;1.10;;;;;;;;;;5071805;28;20282;-76
2022/05/31 00:42:53;;;;;;;3.28;1.95;;;;;;;;;;5071293;28;20201;-76
2022/05/31 00:45:24;;;;;;;2.70;1.50;;;;;;;;;;5071724;28;20224;-76
2022/05/31 00:47:51;;;;;;;2.05;1.50;;;;;;;;;;5071630;28;20204;-76
2022/05/31 00:50:28;;;;;;;1.30;1.08;;;;;;;;;;5088666;22;20283;-84
2022/05/31 00:53:03;;;;;;;1.40;1.30;;;;;;;;;;5057625;28;20223;-83
2022/05/31 00:55:34;;;;;;;1.52;1.33;;;;;;;;;;5058430;28;20217;-83
2022/05/31 00:58:07;;;;;;;1.80;1.25;;;;;;;;;;5058974;28;20198;-83
2022/05/31 01:00:36;;;;;;;2.10;1.10;;;;;;;;;;5059431;28;20680;-82
2022/05/31 01:03:05;;;;;;;1.05;1.02;;;;;;;;;;5058382;28;20213;-83
2022/05/31 01:05:34;;;;;;;2.55;1.30;;;;;;;;;;5060142;28;20201;-83
2022/05/31 01:08:01;;;;;;;2.88;2.03;;;;;;;;;;5059830;28;20198;-83
2022/05/31 01:10:29;;;;;;;1.08;1.08;;;;;;;;;;5060595;28;20237;-83
2022/05/31 01:12:57;;;;;;;1.15;1.08;;;;;;;;;;5061814;28;20235;-83
2022/05/31 01:15:24;;;;;;;1.00;1.00;;;;;;;;;;5062215;28;20224;-83
2022/05/31 01:17:53;;;;;;;2.72;1.50;;;;;;;;;;5044347;28;20214;-82
2022/05/31 01:20:23;;;;;;;1.50;1.25;;;;;;;;;;5045461;28;20224;-82
2022/05/31 01:22:53;;;;;;;1.50;1.40;;;;;;;;;;5045188;28;20202;-83
2022/05/31 01:25:44;;;;;;;1.23;1.13;;;;;;;;;;5046133;28;20659;-83
2022/05/31 01:28:19;;;;;;;2.10;1.45;;;;;;;;;;5045731;28;20202;-82
2022/05/31 01:30:54;;;;;;;3.22;2.13;;;;;;;;;;5045603;28;20220;-83
2022/05/31 01:33:29;;;;;;;2.10;1.70;;;;;;;;;;5045339;28;20206;-83
2022/05/31 01:36:02;;;;;;;1.10;1.05;;;;;;;;;;5046628;28;20222;-83
2022/05/31 01:38:32;;;;;;;1.17;1.17;;;;;;;;;;5046751;28;20214;-83
2022/05/31 01:41:16;;;;;;;1.17;1.17;;;;;;;;;;5047531;28;20226;-83
2022/05/31 01:43:44;;;;;;;1.50;1.40;;;;;;;;;;5046883;28;20206;-83
2022/05/31 01:46:16;;;;;;;1.45;1.35;;;;;;;;;;5047023;28;20210;-83
2022/05/31 01:48:44;;;;;;;1.77;1.48;;;;;;;;;;5047708;28;20218;-82
2022/05/31 01:51:13;;;;;;;1.35;1.25;;;;;;;;;;5046513;28;20230;-82
2022/05/31 01:53:41;;;;;;;2.20;1.50;;;;;;;;;;5047171;28;20199;-83
2022/05/31 01:56:10;;;;;;;3.65;1.27;;;;;;;;;;5047438;28;20447;-82
2022/05/31 01:58:40;;;;;;;1.10;1.10;;;;;;;;;;5048001;28;20194;-84
2022/05/31 02:01:08;;;;;;;1.90;1.40;;;;;;;;;;5047917;28;20232;-82
2022/05/31 02:03:36;;;;;;;2.22;1.70;;;;;;;;;;5047102;28;20209;-82
2022/05/31 02:06:03;;;;;;;2.97;1.48;;;;;;;;;;5048515;28;20202;-83
2022/05/31 02:08:33;;;;;;;1.88;1.35;;;;;;;;;;5048491;28;20202;-82
2022/05/31 02:11:01;;;;;;;1.48;1.38;;;;;;;;;;5048420;28;20222;-82
2022/05/31 02:13:28;;;;;;;1.90;1.70;;;;;;;;;;5048049;28;20198;-82
2022/05/31 02:15:56;;;;;;;1.52;1.42;;;;;;;;;;5049307;28;20256;-82
2022/05/31 02:19:15;;;;;;;1.27;1.17;;;;;;;;;;5049099;28;20207;-82
2022/05/31 02:21:11;;;;;;;2.25;1.30;;;;;;;;;;5048757;28;20281;-82
2022/05/31 02:23:39;;;;;;;1.50;1.40;;;;;;;;;;5047679;28;20199;-83
2022/05/31 02:26:07;;;;;;;1.85;1.48;;;;;;;;;;5047968;28;20206;-82
2022/05/31 02:28:34;;;;;;;1.70;1.60;;;;;;;;;;5048725;28;20208;-83
2022/05/31 02:31:01;;;;;;;1.40;1.30;;;;;;;;;;5049355;28;20226;-83
2022/05/31 02:33:29;;;;;;;1.75;1.63;;;;;;;;;;5049448;28;20248;-83
2022/05/31 02:35:56;;;;;;;1.80;1.70;;;;;;;;;;5049691;28;20309;-83
2022/05/31 02:38:23;;;;;;;1.50;1.40;;;;;;;;;;5049777;28;20209;-83
2022/05/31 02:40:52;;;;;;;1.52;1.42;;;;;;;;;;5049829;28;20221;-82
2022/05/31 02:43:19;;;;;;;1.77;1.52;;;;;;;;;;5049592;28;20580;-81
2022/05/31 02:45:47;;;;;;;2.80;1.98;;;;;;;;;;5050439;28;20236;-83
2022/05/31 02:48:14;;;;;;;1.98;1.65;;;;;;;;;;5050340;28;20241;-83
2022/05/31 02:50:41;;;;;;;1.92;1.70;;;;;;;;;;5050514;28;20248;-81
2022/05/31 02:53:08;;;;;;;1.98;1.75;;;;;;;;;;5050488;28;20197;-83
2022/05/31 02:55:36;;;;;;;2.50;1.83;;;;;;;;;;5050426;28;20229;-81
2022/05/31 02:58:05;;;;;;;2.63;1.67;;;;;;;;;;5050028;28;20205;-82
2022/05/31 03:00:32;;;;;;;1.67;1.58;;;;;;;;;;5050802;28;20241;-82
2022/05/31 03:02:59;;;;;;;1.48;1.40;;;;;;;;;;5050227;28;20205;-82
2022/05/31 03:05:27;;;;;;;3.55;1.85;;;;;;;;;;5051058;28;20208;-82
2022/05/31 03:07:54;;;;;;;1.70;1.60;;;;;;;;;;5050750;28;20233;-82
2022/05/31 03:10:22;;;;;;;1.88;1.70;;;;;;;;;;5050926;28;20226;-83
2022/05/31 03:12:50;;;;;;;1.70;1.60;;;;;;;;;;5051110;28;20256;-83
2022/05/31 03:15:20;;;;;;;2.20;1.73;;;;;;;;;;5051429;28;20202;-82
2022/05/31 03:17:52;;;;;;;1.50;1.40;;;;;;;;;;5050056;28;20194;-83
2022/05/31 03:20:23;;;;;;;1.80;1.70;;;;;;;;;;5052253;28;20229;-83
2022/05/31 03:22:57;;;;;;;1.63;1.50;;;;;;;;;;5052383;28;20214;-83
2022/05/31 03:25:27;;;;;;;1.77;1.42;;;;;;;;;;5052517;28;20206;-82
2022/05/31 03:27:56;;;;;;;1.38;1.27;;;;;;;;;;5056942;28;20202;-84
2022/05/31 03:30:24;;;;;;;2.42;1.45;;;;;;;;;;5057166;28;20210;-84
2022/05/31 03:32:53;;;;;;;1.83;1.33;;;;;;;;;;5056921;28;20213;-84
2022/05/31 03:35:20;;;;;;;4.85;1.40;;;;;;;;;;5057532;28;20261;-84
2022/05/31 03:37:47;;;;;;;1.33;1.23;;;;;;;;;;5057304;28;20225;-84
2022/05/31 03:40:56;;;;;;;3.42;1.70;;;;;;;;;;5056580;28;20224;-83
2022/05/31 03:43:02;;;;;;;1.23;1.13;;;;;;;;;;5055170;28;20202;-83
2022/05/31 03:45:35;;;;;;;2.03;1.52;;;;;;;;;;5056614;28;20216;-84
2022/05/31 03:48:02;;;;;;;1.83;1.63;;;;;;;;;;5056102;28;20202;-82
2022/05/31 03:50:30;;;;;;;1.23;1.13;;;;;;;;;;5056466;28;20230;-84
2022/05/31 03:52:57;;;;;;;1.70;1.40;;;;;;;;;;5055346;28;20198;-84
2022/05/31 03:55:25;;;;;;;2.17;1.38;;;;;;;;;;5055776;28;20202;-85
2022/05/31 03:57:54;;;;;;;1.10;1.10;;;;;;;;;;5055464;28;20195;-84
2022/05/31 04:00:22;;;;;;;1.48;1.17;;;;;;;;;;5055830;28;20230;-83
2022/05/31 04:02:51;;;;;;;1.65;1.55;;;;;;;;;;5056573;28;20229;-84
2022/05/31 04:05:19;;;;;;;1.63;1.52;;;;;;;;;;5057023;28;20209;-84
2022/05/31 04:07:46;;;;;;;1.45;1.38;;;;;;;;;;5056228;28;20193;-84
2022/05/31 04:10:13;;;;;;;3.78;1.67;;;;;;;;;;5056627;28;20207;-84
2022/05/31 04:12:41;;;;;;;1.67;1.58;;;;;;;;;;5055887;28;20198;-83
2022/05/31 04:15:09;;;;;;;1.55;1.42;;;;;;;;;;5055779;28;20234;-84
2022/05/31 04:17:36;;;;;;;3.17;2.53;;;;;;;;;;5057124;28;20229;-84
2022/05/31 04:20:06;;;;;;;1.73;1.63;;;;;;;;;;5055755;28;20202;-84
2022/05/31 04:22:34;;;;;;;2.00;1.40;;;;;;;;;;5055902;28;20186;-84
2022/05/31 04:25:02;;;;;;;1.60;1.50;;;;;;;;;;5056172;28;20194;-83
2022/05/31 04:27:30;;;;;;;2.05;1.95;;;;;;;;;;5055477;28;20213;-83
2022/05/31 04:29:58;;;;;;;1.27;1.20;;;;;;;;;;5056672;28;20206;-82
2022/05/31 04:32:25;;;;;;;1.92;1.63;;;;;;;;;;5056210;28;20191;-83
2022/05/31 04:34:53;;;;;;;4.97;1.70;;;;;;;;;;5054846;28;20206;-83
2022/05/31 04:37:22;;;;;;;1.90;1.20;;;;;;;;;;5055997;28;20221;-84
2022/05/31 04:39:50;;;;;;;1.17;1.17;;;;;;;;;;5057137;28;20222;-84
2022/05/31 04:42:17;;;;;;;1.70;1.23;;;;;;;;;;5056423;28;20200;-84
2022/05/31 04:44:45;;;;;;;1.10;1.10;;;;;;;;;;5056944;28;20217;-83
2022/05/31 04:47:12;;;;;;;1.13;1.13;;;;;;;;;;5055522;28;20241;-82
2022/05/31 04:49:39;;;;;;;1.05;0.80;;;;;;;;;;5051744;28;20226;-84
2022/05/31 04:52:07;;;;;;;1.02;1.00;;;;;;;;;;5054302;28;20198;-83
2022/05/31 04:54:36;;;;;;;0.90;0.90;;;;;;;;;;5055517;28;20203;-83
2022/05/31 04:57:04;;;;;;;1.05;1.02;;;;;;;;;;5056535;28;20253;-82
2022/05/31 04:59:32;;;;;;;1.38;1.30;;;;;;;;;;5056651;28;20193;-83
2022/05/31 05:01:59;;;;;;;2.13;1.45;;;;;;;;;;5051530;28;20202;-83
2022/05/31 05:04:26;;;;;;;1.95;1.77;;;;;;;;;;5053392;28;20202;-83
2022/05/31 05:06:54;;;;;;;1.88;1.77;;;;;;;;;;5052715;28;20204;-83
2022/05/31 05:09:21;;;;;;;1.52;1.42;;;;;;;;;;5054015;28;20212;-83
2022/05/31 05:11:50;;;;;;;1.70;1.60;;;;;;;;;;5055641;28;20188;-83
2022/05/31 05:14:17;;;;;;;3.47;1.85;;;;;;;;;;5056805;28;20202;-84
2022/05/31 05:16:44;;;;;;;1.50;1.40;;;;;;;;;;5056038;28;20210;-83
2022/05/31 05:19:12;;;;;;;1.52;1.40;;;;;;;;;;5056866;28;20186;-84
2022/05/31 05:21:40;;;;;;;1.40;1.40;;;;;;;;;;5054947;28;20218;-84
2022/05/31 05:24:08;;;;;;;1.55;1.45;;;;;;;;;;5052038;28;20213;-82
2022/05/31 05:26:36;;;;;;;2.42;2.22;;;;;;;;;;5055237;28;20345;-83
2022/05/31 05:31:53;;;;;;;1.35;1.35;;;;;;;;;;5053835;28;20201;-83
2022/05/31 05:34:20;;;;;;;1.75;1.65;;;;;;;;;;5054817;28;20226;-83
2022/05/31 05:36:47;;;;;;;1.23;1.15;;;;;;;;;;5051017;28;20252;-83
2022/05/31 05:39:14;;;;;;;1.48;1.42;;;;;;;;;;5050578;28;20212;-83
2022/05/31 05:41:42;;;;;;;1.83;1.33;;;;;;;;;;5043307;28;20198;-78
2022/05/31 05:44:11;;;;;;;1.65;1.50;;;;;;;;;;5033123;28;20248;-77
2022/05/31 05:46:38;;;;;;;2.90;1.80;;;;;;;;;;5032634;28;20673;-79
2022/05/31 05:49:05;;;;;;;1.60;1.50;;;;;;;;;;5033218;28;20203;-78
2022/05/31 05:51:34;;;;;;;3.22;2.70;;;;;;;;;;5031292;28;20233;-77
2022/05/31 05:54:02;;;;;;;1.70;1.60;;;;;;;;;;5033293;28;20622;-78
2022/05/31 05:56:30;;;;;;;2.03;1.45;;;;;;;;;;5051718;28;20202;-78
2022/05/31 05:58:58;;;;;;;1.73;1.50;;;;;;;;;;5058822;28;20272;-78
2022/05/31 06:01:32;;;;;;;3.25;2.95;;;;;;;;;;5061201;28;20216;-78
2022/05/31 06:04:02;;;;;;;1.60;1.50;;;;;;;;;;5055853;28;20209;-77
2022/05/31 06:06:31;;;;;;;3.30;2.30;;;;;;;;;;5055971;28;20205;-78
2022/05/31 06:09:04;;;;;;;1.65;1.48;;;;;;;;;;5056438;28;20639;-77
2022/05/31 06:11:35;;;;;;;1.60;1.50;;;;;;;;;;5055876;28;20241;-78
2022/05/31 06:14:08;;;;;;;2.00;1.75;;;;;;;;;;5062923;28;20228;-78
2022/05/31 06:16:42;;;;;;;1.85;1.65;;;;;;;;;;5060209;28;20202;-78
2022/05/31 06:19:13;;;;;;;1.73;1.63;;;;;;;;;;5064327;28;20233;-78
2022/05/31 06:21:40;;;;;;;2.03;1.77;;;;;;;;;;5064057;28;20650;-79
2022/05/31 06:24:08;;;;;;;1.70;1.60;;;;;;;;;;5061905;28;20296;-78
2022/05/31 06:26:35;;;;;;;1.48;1.38;;;;;;;;;;5055261;28;20224;-78
2022/05/31 06:29:03;;;;;;;2.70;1.60;;;;;;;;;;5055488;28;20247;-78
2022/05/31 06:31:30;;;;;;;1.40;1.30;;;;;;;;;;5054436;28;20272;-78
2022/05/31 06:33:59;;;;;;;1.90;1.70;;;;;;;;;;5053993;28;20209;-78
2022/05/31 06:36:26;;;;;;;1.55;1.45;;;;;;;;;;5053418;28;20205;-78
2022/05/31 06:38:53;;;;;;;2.97;1.60;;;;;;;;;;5054087;28;20232;-78
2022/05/31 06:41:21;;;;;;;2.42;2.25;;;;;;;;;;5054101;28;20279;-77
2022/05/31 06:43:48;;;;;;;1.95;1.77;;;;;;;;;;5054420;28;20626;-78
2022/05/31 06:46:16;;;;;;;2.38;1.30;;;;;;;;;;5050218;28;20220;-78
2022/05/31 06:48:43;;;;;;;1.80;1.50;;;;;;;;;;5054028;28;20577;-78
2022/05/31 06:56:47;;;;;;;1.30;1.20;;;;;;;;;;5093076;22;20229;-79
2022/05/31 06:56:51;;;;;;;2.90;1.75;;;;;;;;;;5074903;28;20216;-79
2022/05/31 06:59:18;;;;;;;2.40;1.67;;;;;;;;;;5075130;28;20641;-79
2022/05/31 07:01:47;;;;;;;1.88;1.77;;;;;;;;;;5074973;28;20221;-78
2022/05/31 07:04:14;;;;;;;1.90;1.73;;;;;;;;;;5074852;28;20604;-78
2022/05/31 07:06:43;;;;;;;2.55;1.80;;;;;;;;;;5074544;28;20205;-79
2022/05/31 07:09:12;;;;;;;1.45;1.35;;;;;;;;;;5075406;28;20208;-78
2022/05/31 07:11:39;;;;;;;2.10;1.35;;;;;;;;;;5074225;28;20225;-78
2022/05/31 07:14:07;;;;;;;2.70;1.40;;;;;;;;;;5074960;28;20201;-79
2022/05/31 07:16:34;;;;;;;1.60;1.50;;;;;;;;;;5074098;28;20205;-79
2022/05/31 07:19:01;;;;;;;2.35;1.55;;;;;;;;;;5074572;28;20231;-78
2022/05/31 07:21:29;;;;;;;1.15;1.15;;;;;;;;;;5075033;28;20302;-79
2022/05/31 07:23:57;;;;;;;1.42;1.33;;;;;;;;;;5074613;28;20255;-80
2022/05/31 07:26:25;;;;;;;1.63;1.52;;;;;;;;;;5074596;28;20205;-79
2022/05/31 07:28:52;;;;;;;1.88;1.50;;;;;;;;;;5076345;28;20201;-80
2022/05/31 07:31:20;;;;;;;1.10;1.10;;;;;;;;;;5077562;28;20229;-80
2022/05/31 07:33:48;;;;;;;2.55;1.60;;;;;;;;;;5076819;28;20236;-79
2022/05/31 07:36:15;;;;;;;1.55;1.45;;;;;;;;;;5074660;28;20977;-81
2022/05/31 07:38:42;;;;;;;3.13;1.40;;;;;;;;;;5076603;28;20233;-80
2022/05/31 07:41:11;;;;;;;2.63;2.17;;;;;;;;;;5077386;28;20225;-81
2022/05/31 07:43:38;;;;;;;1.50;1.40;;;;;;;;;;5076815;28;20582;-82
2022/05/31 07:46:10;;;;;;;1.90;1.80;;;;;;;;;;5077514;28;20211;-80
2022/05/31 07:48:39;;;;;;;1.23;1.20;;;;;;;;;;5075437;28;20251;-81
2022/05/31 07:51:07;;;;;;;1.58;1.48;;;;;;;;;;5075077;28;20720;-81
2022/05/31 07:53:35;;;;;;;3.17;2.33;;;;;;;;;;5073939;28;20208;-81
2022/05/31 07:56:06;;;;;;;2.58;2.03;;;;;;;;;;5075142;28;20209;-79
2022/05/31 07:58:36;;;;;;;1.77;1.55;;;;;;;;;;5076258;28;20229;-82
2022/05/31 08:01:08;;;;;;;1.40;1.30;;;;;;;;;;5078134;28;20224;-81
2022/05/31 08:03:37;;;;;;;1.50;1.40;;;;;;;;;;5070371;28;20583;-83
2022/05/31 08:06:06;;;;;;;1.73;1.30;;;;;;;;;;5071690;28;20208;-82
2022/05/31 08:08:34;;;;;;;1.35;1.25;;;;;;;;;;5078358;28;20201;-83
2022/05/31 08:11:05;;;;;;;2.55;1.63;;;;;;;;;;5085286;28;20310;-83
2022/05/31 08:13:32;;;;;;;1.40;1.30;;;;;;;;;;5077035;28;20266;-83
2022/05/31 08:16:02;;;;;;;1.95;1.40;;;;;;;;;;5074911;28;20310;-83
2022/05/31 08:18:29;;;;;;;2.33;1.30;;;;;;;;;;5076639;28;20583;-84
2022/05/31 08:21:00;;;;;;;1.45;1.15;;;;;;;;;;5075620;28;20282;-83
2022/05/31 08:23:28;;;;;;;2.40;1.52;;;;;;;;;;5074042;28;20201;-83
2022/05/31 08:25:55;;;;;;;1.13;1.02;;;;;;;;;;5074274;28;20633;-83
2022/05/31 08:28:23;;;;;;;1.38;1.20;;;;;;;;;;5076762;28;20689;-82
2022/05/31 08:30:52;;;;;;;2.08;1.52;;;;;;;;;;5083653;28;20220;-83
2022/05/31 08:33:21;;;;;;;2.72;1.65;;;;;;;;;;5079029;28;20205;-82
2022/05/31 08:35:48;;;;;;;2.67;2.15;;;;;;;;;;5082750;28;20608;-81
2022/05/31 08:38:16;;;;;;;1.88;1.73;;;;;;;;;;5083357;28;20219;-80
2022/05/31 08:40:57;;;;;;;1.63;1.52;;;;;;;;;;5084175;28;20221;-82
2022/05/31 08:43:32;;;;;;;2.63;1.40;;;;;;;;;;5081960;28;20553;-80
2022/05/31 08:46:06;;;;;;;1.13;1.13;;;;;;;;;;5084036;28;20212;-82
2022/05/31 08:48:41;;;;;;;1.30;1.20;;;;;;;;;;5083987;28;20212;-84
2022/05/31 08:56:58;;;;;;;1.20;1.10;;;;;;;;;;5084512;28;20254;-82
2022/05/31 08:59:31;;;;;;;1.45;1.35;;;;;;;;;;5081931;28;20224;-83
2022/05/31 09:02:03;;;;;;;1.35;1.25;;;;;;;;;;5083875;28;20224;-81
2022/05/31 09:04:39;;;;;;;2.15;1.00;;;;;;;;;;5083761;28;20589;-82
2022/05/31 09:07:10;;;;;;;1.70;1.60;;;;;;;;;;5084619;28;20212;-82
2022/05/31 09:09:42;;;;;;;1.67;1.52;;;;;;;;;;5082700;28;20207;-83
2022/05/31 09:12:16;;;;;;;1.30;1.20;;;;;;;;;;5082128;28;20212;-82
2022/05/31 09:14:49;;;;;;;1.80;1.23;;;;;;;;;;5078274;28;20208;-84
2022/05/31 09:17:24;;;;;;;1.67;1.42;;;;;;;;;;5077643;28;20215;-82
2022/05/31 09:19:59;;;;;;;4.82;1.90;;;;;;;;;;5069676;28;20227;-83
2022/05/31 09:22:26;;;;;;;2.75;1.70;;;;;;;;;;5076921;28;20653;-80
2022/05/31 09:24:54;;;;;;;1.60;1.50;;;;;;;;;;5076719;28;20205;-84
2022/05/31 09:27:26;;;;;;;2.40;1.73;;;;;;;;;;5078363;28;20201;-84
2022/05/31 09:30:04;;;;;;;2.00;1.80;;;;;;;;;;5078522;28;20201;-84
2022/05/31 09:32:58;;;;;;;2.30;1.48;;;;;;;;;;5076615;28;21065;-82
2022/05/31 09:36:10;;;;;;;2.55;1.85;;;;;;;;;;5081674;28;20209;-82
2022/05/31 09:39:12;;;;;;;1.52;1.40;;;;;;;;;;5071856;28;20204;-83
2022/05/31 09:41:45;;;;;;;1.92;1.58;;;;;;;;;;5079910;28;20228;-83
2022/05/31 09:44:17;;;;;;;2.35;1.63;;;;;;;;;;5080151;28;20211;-84
2022/05/31 09:46:49;;;;;;;1.50;1.40;;;;;;;;;;5080386;28;20213;-84
2022/05/31 09:49:26;;;;;;;1.58;1.48;;;;;;;;;;5080062;28;20669;-83
2022/05/31 09:51:54;;;;;;;1.63;1.52;;;;;;;;;;5073253;28;20228;-84
2022/05/31 09:57:15;;;;;;;1.20;1.20;;;;;;;;;;5081160;28;20212;-84
2022/05/31 09:59:48;;;;;;;1.05;1.02;;;;;;;;;;5080427;28;20256;-84
2022/05/31 10:02:33;;;;;;;1.52;1.42;;;;;;;;;;5079818;28;20242;-85
2022/05/31 10:05:16;;;;;;;1.95;1.60;;;;;;;;;;5078593;28;20212;-83
2022/05/31 10:07:46;;;;;;;1.35;1.25;;;;;;;;;;5075199;28;20208;-84
2022/05/31 10:10:16;;;;;;;1.55;1.45;;;;;;;;;;5078802;28;20228;-84
2022/05/31 10:12:52;;;;;;;1.30;1.25;;;;;;;;;;5077788;28;20205;-84
2022/05/31 10:15:39;;;;;;;1.52;1.42;;;;;;;;;;5078412;28;20204;-85
2022/05/31 10:18:09;;;;;;;1.00;1.00;;;;;;;;;;5071805;28;20216;-83
2022/05/31 10:20:37;;;;;;;1.00;1.00;;;;;;;;;;5071749;28;20229;-83
2022/05/31 10:23:11;;;;;;;2.47;1.75;;;;;;;;;;5072064;28;20632;-84
2022/05/31 10:25:45;;;;;;;1.10;1.10;;;;;;;;;;5078183;28;20296;-84
2022/05/31 10:28:25;;;;;;;1.45;1.35;;;;;;;;;;5078255;28;20220;-83
2022/05/31 10:30:53;;;;;;;1.08;1.08;;;;;;;;;;5077315;28;20224;-84
2022/05/31 10:33:25;;;;;;;0.75;0.75;;;;;;;;;;5077197;28;20213;-83
2022/05/31 10:36:10;;;;;;;1.52;1.42;;;;;;;;;;5077558;28;20258;-86
2022/05/31 10:38:43;;;;;;;1.50;1.40;;;;;;;;;;5071555;28;20227;-84
2022/05/31 10:41:30;;;;;;;1.27;1.27;;;;;;;;;;5076856;28;20232;-85
2022/05/31 10:44:01;;;;;;;1.25;1.23;;;;;;;;;;5079244;28;20647;-84
2022/05/31 10:46:31;;;;;;;1.50;1.40;;;;;;;;;;5076138;28;20213;-84
2022/05/31 10:49:01;;;;;;;2.15;1.48;;;;;;;;;;5079084;28;20208;-85
2022/05/31 10:51:39;;;;;;;1.00;1.00;;;;;;;;;;5077216;28;20229;-84
2022/05/31 10:54:46;;;;;;;1.10;1.05;;;;;;;;;;5077472;28;20216;-84
2022/05/31 10:57:24;;;;;;;2.38;1.42;;;;;;;;;;5067161;28;20212;-84
2022/05/31 10:59:55;;;;;;;1.15;1.10;;;;;;;;;;5077848;28;20220;-85
2022/05/31 11:02:58;;;;;;;1.25;1.10;;;;;;;;;;5076410;28;20205;-85
2022/05/31 11:05:33;;;;;;;2.08;1.50;;;;;;;;;;5078434;28;20200;-83
2022/05/31 11:13:59;;;;;;;1.83;1.10;;;;;;;;;;5076998;28;20207;-84
2022/05/31 11:16:39;;;;;;;1.45;1.30;;;;;;;;;;5077902;28;20208;-85
2022/05/31 11:19:32;;;;;;;1.20;1.10;;;;;;;;;;5077693;28;20665;-86
2022/05/31 11:22:15;;;;;;;1.60;1.50;;;;;;;;;;5077178;28;20267;-83
2022/05/31 11:25:13;;;;;;;1.25;1.15;;;;;;;;;;5077128;28;20219;-86
2022/05/31 11:27:50;;;;;;;0.90;0.90;;;;;;;;;;5077795;28;20209;-85
2022/05/31 11:30:22;;;;;;;1.33;1.23;;;;;;;;;;5077579;28;20236;-86
2022/05/31 11:33:22;;;;;;;0.98;0.98;;;;;;;;;;5077331;28;20277;-84
2022/05/31 11:36:10;;;;;;;0.95;0.95;;;;;;;;;;5076655;28;20227;-84
2022/05/31 11:38:49;;;;;;;0.80;0.80;;;;;;;;;;5077517;28;20254;-85
2022/05/31 11:41:27;;;;;;;0.90;0.90;;;;;;;;;;5077113;28;20239;-84
2022/05/31 11:44:54;;;;;;;1.00;1.00;;;;;;;;;;5075918;28;20201;-83
2022/05/31 11:47:51;;;;;;;1.00;1.00;;;;;;;;;;5066632;28;20205;-85
2022/05/31 11:50:28;;;;;;;0.80;0.80;;;;;;;;;;5075201;28;20237;-84
2022/05/31 11:53:11;;;;;;;1.10;1.10;;;;;;;;;;5078072;28;20228;-85
2022/05/31 11:55:42;;;;;;;1.55;1.30;;;;;;;;;;5077997;28;20212;-85
2022/05/31 11:58:35;;;;;;;0.77;0.77;;;;;;;;;;5078636;28;20215;-85
2022/05/31 12:01:11;;;;;;;0.90;0.90;;;;;;;;;;5067514;28;20237;-86
2022/05/31 12:03:49;;;;;;;0.90;0.90;;;;;;;;;;5076975;28;20698;-86
2022/05/31 12:06:26;;;;;;;0.88;0.88;;;;;;;;;;5076500;28;20216;-84
2022/05/31 12:09:00;;;;;;;1.00;1.00;;;;;;;;;;5077028;28;20208;-84
2022/05/31 12:11:33;;;;;;;0.90;0.90;;;;;;;;;;5071588;28;20220;-86
2022/05/31 12:14:01;;;;;;;1.00;1.00;;;;;;;;;;5077360;28;20205;-85
2022/05/31 12:16:31;;;;;;;1.10;1.10;;;;;;;;;;5076163;28;20553;-85
2022/05/31 12:19:10;;;;;;;1.05;0.90;;;;;;;;;;5077617;28;20205;-86
2022/05/31 12:21:42;;;;;;;1.15;0.80;;;;;;;;;;5075731;28;20231;-83
2022/05/31 12:24:14;;;;;;;0.95;0.85;;;;;;;;;;5075757;28;20628;-86
2022/05/31 12:26:50;;;;;;;1.08;1.08;;;;;;;;;;5076809;28;20300;-85
2022/05/31 12:29:22;;;;;;;0.65;0.65;;;;;;;;;;5076481;28;20205;-86
2022/05/31 12:31:51;;;;;;;0.70;0.70;;;;;;;;;;5075553;28;20308;-86
2022/05/31 12:34:44;;;;;;;0.70;0.70;;;;;;;;;;5068435;28;20209;-85
2022/05/31 12:37:13;;;;;;;0.68;0.65;;;;;;;;;;5075282;28;20638;-85
2022/05/31 12:39:42;;;;;;;0.70;0.70;;;;;;;;;;5076876;28;20208;-85
2022/05/31 12:42:40;;;;;;;1.17;0.70;;;;;;;;;;5074569;28;20228;-83
2022/05/31 12:45:24;;;;;;;0.90;0.90;;;;;;;;;;5069293;28;20209;-84
2022/05/31 12:47:58;;;;;;;0.88;0.88;;;;;;;;;;5072338;28;20286;-83
2022/05/31 12:51:08;;;;;;;1.33;1.00;;;;;;;;;;5100145;23;20232;-78
2022/05/31 12:54:10;;;;;;;1.17;1.10;;;;;;;;;;5089903;28;20204;-78
2022/05/31 12:56:57;;;;;;;0.80;0.80;;;;;;;;;;5097135;28;20203;-80
2022/05/31 12:59:49;;;;;;;1.13;1.02;;;;;;;;;;5095191;28;20204;-79
2022/05/31 13:02:35;;;;;;;1.05;0.88;;;;;;;;;;5086173;28;20232;-77
2022/05/31 13:05:26;;;;;;;0.90;0.90;;;;;;;;;;5095427;28;20212;-78
2022/05/31 13:08:19;;;;;;;0.98;0.90;;;;;;;;;;5093813;28;20206;-78
2022/05/31 13:19:38;;;;;;;0.93;0.93;;;;;;;;;;5099890;28;20278;-77
2022/05/31 13:22:09;;;;;;;1.38;1.08;;;;;;;;;;5098473;28;20238;-78
2022/05/31 13:24:44;;;;;;;1.13;1.13;;;;;;;;;;5101275;28;20224;-78
2022/05/31 13:27:12;;;;;;;0.90;0.90;;;;;;;;;;5101067;28;20219;-79
2022/05/31 13:29:39;;;;;;;1.25;1.25;;;;;;;;;;5100160;28;20277;-77
2022/05/31 13:32:12;;;;;;;1.77;0.93;;;;;;;;;;5097937;28;20311;-77
2022/05/31 13:34:43;;;;;;;1.00;1.00;;;;;;;;;;5099688;28;20200;-77
2022/05/31 13:37:18;;;;;;;0.93;0.93;;;;;;;;;;5098696;28;20656;-77
2022/05/31 13:39:49;;;;;;;1.13;1.13;;;;;;;;;;5099655;28;20306;-78
2022/05/31 13:42:22;;;;;;;1.23;1.00;;;;;;;;;;5100186;28;20228;-79
2022/05/31 13:44:49;;;;;;;1.08;1.08;;;;;;;;;;5101825;28;20659;-78
2022/05/31 13:47:19;;;;;;;1.33;1.20;;;;;;;;;;5101540;28;20212;-77
2022/05/31 13:49:49;;;;;;;1.08;1.00;;;;;;;;;;5100628;28;20672;-79
2022/05/31 13:52:28;;;;;;;0.85;0.85;;;;;;;;;;5094365;28;20238;-78
2022/05/31 13:55:06;;;;;;;1.17;1.08;;;;;;;;;;5100812;28;20286;-78
2022/05/31 13:57:33;;;;;;;0.98;0.98;;;;;;;;;;5101519;28;20651;-78
2022/05/31 14:00:00;;;;;;;1.35;1.25;;;;;;;;;;5103545;28;20325;-78
2022/05/31 14:05:18;;;;;;;1.10;1.00;;;;;;;;;;5099350;28;20573;-78
2022/05/31 14:07:48;;;;;;;0.80;0.80;;;;;;;;;;5100354;28;20204;-79
2022/05/31 14:10:18;;;;;;;1.48;1.38;;;;;;;;;;5100702;28;20200;-78
2022/05/31 14:12:46;;;;;;;1.25;0.98;;;;;;;;;;5098492;28;20219;-78
2022/05/31 14:15:25;;;;;;;2.00;1.35;;;;;;;;;;5099667;28;20211;-78
2022/05/31 14:18:03;;;;;;;1.63;0.90;;;;;;;;;;5095691;28;20291;-78
2022/05/31 14:20:36;;;;;;;1.15;1.10;;;;;;;;;;5100195;28;20334;-78
2022/05/31 14:23:07;;;;;;;1.05;0.93;;;;;;;;;;5095262;28;20258;-78
2022/05/31 14:25:35;;;;;;;1.00;1.00;;;;;;;;;;5096495;28;20265;-78
2022/05/31 14:28:03;;;;;;;1.10;1.10;;;;;;;;;;5096323;28;20216;-78
2022/05/31 14:30:34;;;;;;;1.52;1.30;;;;;;;;;;5095440;28;20259;-77
2022/05/31 14:33:06;;;;;;;2.47;1.35;;;;;;;;;;5095732;28;20200;-78
2022/05/31 14:35:41;;;;;;;1.20;1.20;;;;;;;;;;5098451;28;20223;-78
2022/05/31 14:41:41;;;;;;;1.40;1.30;;;;;;;;;;5086297;28;20238;-77
2022/05/31 14:44:34;;;;;;;0.98;0.98;;;;;;;;;;5094833;28;20213;-78
2022/05/31 14:47:11;;;;;;;1.17;1.10;;;;;;;;;;5095370;28;20475;-78
2022/05/31 14:49:44;;;;;;;1.00;1.00;;;;;;;;;;5094376;28;20214;-77
2022/05/31 14:52:24;;;;;;;0.90;0.90;;;;;;;;;;5087624;28;20232;-77
2022/05/31 14:54:56;;;;;;;2.15;1.85;;;;;;;;;;5095001;28;20239;-78
2022/05/31 14:57:26;;;;;;;0.98;0.98;;;;;;;;;;5094708;28;20227;-77
2022/05/31 14:59:56;;;;;;;1.00;1.00;;;;;;;;;;5094235;28;20216;-78
2022/05/31 15:02:27;;;;;;;1.55;1.45;;;;;;;;;;5094867;28;20673;-78
2022/05/31 15:04:56;;;;;;;1.00;1.00;;;;;;;;;;5095712;28;20232;-77
2022/05/31 15:07:26;;;;;;;1.02;1.02;;;;;;;;;;5094208;28;20285;-77
2022/05/31 15:10:13;;;;;;;0.90;0.90;;;;;;;;;;5094231;28;20212;-78
2022/05/31 15:20:56;;;;;;;0.95;0.80;;;;;;;;;;5095381;28;20247;-76
2022/05/31 15:23:27;;;;;;;1.00;1.00;;;;;;;;;;5094193;28;20277;-78
2022/05/31 15:25:58;;;;;;;1.08;1.00;;;;;;;;;;5096523;28;20677;-76
2022/05/31 15:28:26;;;;;;;0.77;0.77;;;;;;;;;;5094699;28;20208;-78
2022/05/31 15:30:53;;;;;;;0.93;0.80;;;;;;;;;;5092865;28;20235;-77
2022/05/31 15:33:20;;;;;;;0.95;0.95;;;;;;;;;;5095210;28;20197;-78
2022/05/31 15:35:47;;;;;;;1.02;1.00;;;;;;;;;;5094665;28;20211;-78
2022/05/31 15:38:20;;;;;;;1.85;1.20;;;;;;;;;;5093479;28;20262;-76
2022/05/31 15:40:48;;;;;;;1.45;1.08;;;;;;;;;;5094035;28;20277;-77
2022/05/31 15:43:51;;;;;;;1.10;1.00;;;;;;;;;;5092851;28;20321;-77
2022/05/31 15:46:04;;;;;;;0.90;0.90;;;;;;;;;;5093107;28;20265;-77
2022/05/31 15:48:32;;;;;;;1.00;1.00;;;;;;;;;;5093049;28;20208;-77
2022/05/31 15:51:00;;;;;;;2.10;1.35;;;;;;;;;;5094682;28;20236;-78
2022/05/31 15:53:30;;;;;;;1.17;1.17;;;;;;;;;;5093571;28;20204;-78
2022/05/31 15:55:57;;;;;;;1.08;1.05;;;;;;;;;;5093876;28;20249;-78